Time;durP1;ratioP1;P1;durP2;ratioP2;P2;SDS_P1;SDS_P2;PMS_P1;PMS_P2;Temp;Humidity;BMP_temperature;BMP_pressure;BME280_temperature;BME280_humidity;BME280_pressure;Samples;Min_cycle;Max_cycle;Signal;HPM_P1;HPM_P2
2023/11/22 00:01:47;;;;;;;;;;;;;;;6.92;99.20;98802.38;4993642;28;19914;-70
2023/11/22 00:04:12;;;;;;;;;;;;;;;6.93;98.58;98798.44;4994995;28;20312;-70
2023/11/22 00:06:38;;;;;;;;;;;;;;;7.09;98.42;98788.44;4993422;28;19918;-70
2023/11/22 00:09:04;;;;;;;;;;;;;;;7.30;97.20;98785.00;4975511;28;19922;-70
2023/11/22 00:11:29;;;;;;;;;;;;;;;7.42;96.14;98785.13;4975302;28;19922;-70
2023/11/22 00:13:55;;;;;;;;;;;;;;;7.44;95.61;98791.19;4987479;28;19940;-70
2023/11/22 00:16:21;;;;;;;;;;;;;;;7.65;94.71;98792.44;4993721;28;19918;-70
2023/11/22 00:18:46;;;;;;;;;;;;;;;7.84;93.59;98792.88;4993359;28;19964;-70
2023/11/22 00:21:12;;;;;;;;;;;;;;;7.79;92.84;98793.06;4993425;28;19913;-70
2023/11/22 00:23:37;;;;;;;;;;;;;;;7.91;92.17;98778.44;4994550;28;19917;-70
2023/11/22 00:26:03;;;;;;;;;;;;;;;7.93;92.00;98787.25;4992430;28;19961;-70
2023/11/22 00:28:29;;;;;;;;;;;;;;;8.01;91.28;98783.63;4993182;28;19914;-70
2023/11/22 00:30:54;;;;;;;;;;;;;;;8.15;90.69;98777.84;4994588;28;19963;-70
2023/11/22 00:33:19;;;;;;;;;;;;;;;8.28;90.36;98775.16;4993048;28;19925;-70
2023/11/22 00:35:45;;;;;;;;;;;;;;;8.39;89.59;98776.41;4994393;28;19914;-70
2023/11/22 00:38:10;;;;;;;;;;;;;;;8.44;89.00;98780.94;4990871;28;19921;-70
2023/11/22 00:40:36;;;;;;;;;;;;;;;8.41;88.88;98779.66;4994475;28;19922;-70
2023/11/22 00:43:01;;;;;;;;;;;;;;;8.48;87.74;98778.28;4993916;28;19924;-70
2023/11/22 00:45:26;;;;;;;;;;;;;;;8.55;87.14;98773.03;4992903;28;19944;-70
2023/11/22 00:47:52;;;;;;;;;;;;;;;8.57;86.71;98779.91;4991815;28;19973;-70
2023/11/22 00:50:19;;;;;;;;;;;;;;;8.12;88.73;98772.13;4994204;28;19920;-70
2023/11/22 00:52:45;;;;;;;;;;;;;;;7.99;89.09;98777.59;4992681;28;20405;-70
2023/11/22 00:55:11;;;;;;;;;;;;;;;7.99;89.41;98783.16;4994164;28;19917;-70
2023/11/22 00:57:37;;;;;;;;;;;;;;;7.46;92.02;98771.38;4992981;28;20364;-70
2023/11/22 01:00:04;;;;;;;;;;;;;;;7.65;92.08;98775.72;4993649;28;19993;-70
2023/11/22 01:02:29;;;;;;;;;;;;;;;7.78;91.02;98777.47;4993929;28;19917;-70
2023/11/22 01:04:55;;;;;;;;;;;;;;;7.99;90.48;98773.97;4993886;28;19914;-70
2023/11/22 01:07:20;;;;;;;;;;;;;;;7.51;91.14;98764.81;4992624;28;19925;-70
2023/11/22 01:09:45;;;;;;;;;;;;;;;7.11;94.70;98771.44;4992418;28;19921;-70
2023/11/22 01:12:12;;;;;;;;;;;;;;;7.19;94.16;98762.28;4993032;28;19922;-70
2023/11/22 01:14:37;;;;;;;;;;;;;;;7.45;93.10;98769.75;4993466;28;19917;-69
2023/11/22 01:17:03;;;;;;;;;;;;;;;7.67;91.67;98776.25;4991149;28;20331;-69
2023/11/22 01:19:28;;;;;;;;;;;;;;;7.76;91.52;98767.84;4993612;28;19920;-70
2023/11/22 01:21:54;;;;;;;;;;;;;;;7.41;92.47;98772.38;4992128;28;20320;-70
2023/11/22 01:24:19;;;;;;;;;;;;;;;7.09;94.51;98757.84;4991802;28;19925;-70
2023/11/22 01:26:44;;;;;;;;;;;;;;;7.01;95.17;98758.69;4991399;28;19918;-70
2023/11/22 01:29:11;;;;;;;;;;;;;;;6.81;95.84;98761.00;4993295;28;19972;-70
2023/11/22 01:31:37;;;;;;;;;;;;;;;6.91;96.80;98776.50;4992030;28;19968;-69
2023/11/22 01:34:04;;;;;;;;;;;;;;;7.08;96.16;98769.31;4993178;28;19921;-69
2023/11/22 01:36:29;;;;;;;;;;;;;;;6.98;96.25;98759.34;4991165;28;19918;-70
2023/11/22 01:38:55;;;;;;;;;;;;;;;6.79;97.86;98763.28;4993217;28;19914;-70
2023/11/22 01:41:21;;;;;;;;;;;;;;;7.00;97.39;98762.63;4993207;28;19964;-69
2023/11/22 01:43:46;;;;;;;;;;;;;;;7.09;96.74;98760.63;4986483;28;20305;-70
2023/11/22 01:46:33;;;;;;;;;;;;;;;7.17;96.31;98753.41;4990605;28;19922;-70
2023/11/22 01:48:59;;;;;;;;;;;;;;;6.98;97.22;98751.81;4991223;28;19921;-70
2023/11/22 01:51:25;;;;;;;;;;;;;;;7.27;96.33;98743.94;4992904;28;19913;-70
2023/11/22 01:53:55;;;;;;;;;;;;;;;7.37;95.38;98734.41;4992932;28;19969;-70
2023/11/22 01:56:22;;;;;;;;;;;;;;;7.54;94.18;98739.94;4992263;28;19960;-70
2023/11/22 01:58:49;;;;;;;;;;;;;;;7.63;93.22;98736.28;4991897;28;19917;-70
2023/11/22 02:01:14;;;;;;;;;;;;;;;7.83;92.25;98731.94;4992832;28;20025;-70
2023/11/22 02:03:39;;;;;;;;;;;;;;;7.72;91.33;98732.34;4992771;28;19945;-70
2023/11/22 02:06:05;;;;;;;;;;;;;;;7.67;91.85;98726.13;4992736;28;19914;-70
2023/11/22 02:08:30;;;;;;;;;;;;;;;7.39;93.42;98735.72;4990589;28;19917;-70
2023/11/22 02:10:59;;;;;;;;;;;;;;;7.65;92.05;98729.25;4992357;28;19976;-70
2023/11/22 02:13:24;;;;;;;;;;;;;;;7.71;91.80;98733.47;4992203;28;19936;-70
2023/11/22 02:15:50;;;;;;;;;;;;;;;7.75;90.97;98736.41;4992558;28;19913;-70
2023/11/22 02:18:15;;;;;;;;;;;;;;;7.80;91.18;98738.19;4991566;28;19917;-70
2023/11/22 02:20:43;;;;;;;;;;;;;;;7.92;91.04;98734.72;4992531;28;19913;-69
2023/11/22 02:23:11;;;;;;;;;;;;;;;7.59;92.11;98725.81;4991055;28;19976;-69
2023/11/22 02:25:36;;;;;;;;;;;;;;;7.71;92.01;98721.53;4992477;28;20430;-69
2023/11/22 02:28:02;;;;;;;;;;;;;;;7.78;91.78;98709.88;4990444;28;19917;-70
2023/11/22 02:30:27;;;;;;;;;;;;;;;7.86;91.01;98722.94;4980712;28;19918;-70
2023/11/22 02:32:53;;;;;;;;;;;;;;;7.93;90.91;98709.28;4987609;28;19992;-70
2023/11/22 02:35:19;;;;;;;;;;;;;;;7.85;91.09;98715.75;4991002;28;19973;-70
2023/11/22 02:37:45;;;;;;;;;;;;;;;7.70;91.77;98726.25;4990426;28;19964;-70
2023/11/22 02:40:18;;;;;;;;;;;;;;;7.72;92.17;98715.63;4992300;28;20392;-70
2023/11/22 02:42:44;;;;;;;;;;;;;;;7.91;91.49;98722.75;4990760;28;19941;-70
2023/11/22 02:45:09;;;;;;;;;;;;;;;7.99;91.04;98721.06;4992038;28;19922;-70
2023/11/22 02:47:34;;;;;;;;;;;;;;;7.89;90.47;98711.13;4991359;28;19925;-70
2023/11/22 02:50:01;;;;;;;;;;;;;;;7.72;91.47;98714.81;4990814;28;20047;-70
2023/11/22 02:52:26;;;;;;;;;;;;;;;7.81;91.51;98721.16;4992186;28;19953;-70
2023/11/22 02:54:51;;;;;;;;;;;;;;;7.87;90.52;98721.78;4991950;28;20041;-70
2023/11/22 02:57:17;;;;;;;;;;;;;;;7.86;91.06;98726.53;4990217;28;19961;-70
2023/11/22 02:59:43;;;;;;;;;;;;;;;7.82;91.13;98720.00;4991478;28;19918;-70
2023/11/22 03:02:08;;;;;;;;;;;;;;;7.89;90.50;98724.22;4996013;28;20413;-70
2023/11/22 03:04:34;;;;;;;;;;;;;;;7.93;90.57;98726.00;4994665;28;19922;-70
2023/11/22 03:06:59;;;;;;;;;;;;;;;7.83;90.71;98721.63;4993929;28;19926;-70
2023/11/22 03:09:25;;;;;;;;;;;;;;;7.81;90.94;98723.09;4994955;28;19913;-70
2023/11/22 03:11:51;;;;;;;;;;;;;;;7.85;90.83;98719.31;4994694;28;19953;-70
2023/11/22 03:14:17;;;;;;;;;;;;;;;7.92;91.35;98729.94;4994153;28;19917;-70
2023/11/22 03:16:42;;;;;;;;;;;;;;;7.85;90.61;98729.66;4994360;28;19925;-70
2023/11/22 03:19:08;;;;;;;;;;;;;;;7.64;91.64;98729.56;4995655;28;19914;-69
2023/11/22 03:21:35;;;;;;;;;;;;;;;7.83;90.93;98726.38;4995817;28;20361;-70
2023/11/22 03:24:03;;;;;;;;;;;;;;;7.95;90.61;98717.31;4993715;28;20328;-70
2023/11/22 03:26:29;;;;;;;;;;;;;;;8.03;90.89;98691.41;4995709;28;20286;-70
2023/11/22 03:28:54;;;;;;;;;;;;;;;8.04;90.14;98690.25;4994061;28;19929;-70
2023/11/22 03:31:19;;;;;;;;;;;;;;;7.99;89.97;98694.03;4995204;28;19996;-70
2023/11/22 03:33:45;;;;;;;;;;;;;;;8.08;89.29;98699.53;4993648;28;19917;-70
2023/11/22 03:36:11;;;;;;;;;;;;;;;8.09;89.51;98705.94;4995422;28;20365;-70
2023/11/22 03:38:36;;;;;;;;;;;;;;;7.83;91.21;98715.22;4994223;28;19982;-70
2023/11/22 03:41:01;;;;;;;;;;;;;;;7.56;92.44;98712.59;4995188;28;20064;-70
2023/11/22 03:43:27;;;;;;;;;;;;;;;7.77;91.94;98722.16;4992430;28;20304;-70
2023/11/22 03:45:52;;;;;;;;;;;;;;;7.89;91.44;98713.06;4995224;28;19929;-70
2023/11/22 03:48:17;;;;;;;;;;;;;;;7.93;90.95;98712.06;4995280;28;19913;-70
2023/11/22 03:50:43;;;;;;;;;;;;;;;7.75;92.41;98716.91;4994140;28;20399;-70
2023/11/22 03:53:08;;;;;;;;;;;;;;;7.87;91.66;98710.66;4994134;28;20009;-70
2023/11/22 03:55:33;;;;;;;;;;;;;;;7.91;91.00;98713.59;4993835;28;19918;-69
2023/11/22 03:57:58;;;;;;;;;;;;;;;7.82;91.95;98724.75;4995250;28;19914;-70
2023/11/22 04:00:24;;;;;;;;;;;;;;;7.85;91.53;98729.66;4993520;28;19921;-70
2023/11/22 04:02:49;;;;;;;;;;;;;;;7.82;91.29;98739.50;4994153;28;19917;-70
2023/11/22 04:05:15;;;;;;;;;;;;;;;7.81;91.28;98729.50;4993475;28;20401;-69
2023/11/22 04:07:41;;;;;;;;;;;;;;;7.75;91.96;98738.38;4993674;28;19913;-69
2023/11/22 04:10:06;;;;;;;;;;;;;;;7.58;93.11;98743.69;4994777;28;19921;-70
2023/11/22 04:12:32;;;;;;;;;;;;;;;7.63;92.95;98739.91;4993122;28;19952;-70
2023/11/22 04:14:57;;;;;;;;;;;;;;;7.78;92.62;98735.72;4994567;28;20004;-70
2023/11/22 04:17:23;;;;;;;;;;;;;;;7.80;92.45;98743.75;4994609;28;19918;-70
2023/11/22 04:19:48;;;;;;;;;;;;;;;7.87;92.11;98742.06;4993777;28;19968;-70
2023/11/22 04:22:13;;;;;;;;;;;;;;;6.98;96.90;98737.91;4992681;28;20387;-70
2023/11/22 04:24:39;;;;;;;;;;;;;;;7.33;96.10;98748.16;4994681;28;19914;-70
2023/11/22 04:27:04;;;;;;;;;;;;;;;7.50;95.68;98757.63;4994581;28;19992;-70
2023/11/22 04:29:30;;;;;;;;;;;;;;;7.67;94.39;98745.63;4994455;28;19945;-70
2023/11/22 04:31:55;;;;;;;;;;;;;;;7.73;93.88;98756.25;4992422;28;19922;-70
2023/11/22 04:34:20;;;;;;;;;;;;;;;7.66;94.95;98747.56;4994524;28;19914;-70
2023/11/22 04:36:46;;;;;;;;;;;;;;;7.74;94.30;98757.03;4993120;28;19920;-70
2023/11/22 04:39:12;;;;;;;;;;;;;;;7.84;93.20;98761.41;4994379;28;19968;-70
2023/11/22 04:41:38;;;;;;;;;;;;;;;7.82;93.22;98770.13;4993202;28;19965;-70
2023/11/22 04:44:04;;;;;;;;;;;;;;;7.89;92.98;98771.56;4994124;28;20417;-70
2023/11/22 04:46:29;;;;;;;;;;;;;;;7.93;92.80;98787.25;4994085;28;19922;-70
2023/11/22 04:48:55;;;;;;;;;;;;;;;7.82;92.89;98788.78;4994232;28;19921;-70
2023/11/22 04:51:20;;;;;;;;;;;;;;;7.52;94.22;98805.41;4994184;28;19979;-70
2023/11/22 04:53:45;;;;;;;;;;;;;;;7.24;96.69;98794.63;4993200;28;19928;-70
2023/11/22 04:56:11;;;;;;;;;;;;;;;7.47;95.74;98800.84;4992727;28;19941;-70
2023/11/22 04:58:36;;;;;;;;;;;;;;;7.25;97.00;98818.56;4994042;28;20339;-70
2023/11/22 05:01:02;;;;;;;;;;;;;;;7.33;97.36;98814.94;4993934;28;19914;-70
2023/11/22 05:03:28;;;;;;;;;;;;;;;7.33;97.00;98809.38;4993043;28;19948;-70
2023/11/22 05:05:53;;;;;;;;;;;;;;;7.53;96.27;98804.25;4992986;28;19921;-70
2023/11/22 05:08:18;;;;;;;;;;;;;;;7.63;95.08;98822.56;4993849;28;19914;-70
2023/11/22 05:10:44;;;;;;;;;;;;;;;7.69;94.73;98822.06;4993773;28;19957;-70
2023/11/22 05:13:09;;;;;;;;;;;;;;;7.71;94.77;98816.97;4991496;28;19960;-70
2023/11/22 05:15:34;;;;;;;;;;;;;;;7.57;95.18;98835.84;4992293;28;19917;-70
2023/11/22 05:18:00;;;;;;;;;;;;;;;7.68;94.73;98845.47;4993396;28;19925;-70
2023/11/22 05:20:25;;;;;;;;;;;;;;;7.80;94.22;98846.75;4994157;28;19954;-70
2023/11/22 05:22:51;;;;;;;;;;;;;;;7.77;93.86;98837.09;4991851;28;19957;-70
2023/11/22 05:25:16;;;;;;;;;;;;;;;7.39;95.66;98835.88;4992172;28;19914;-70
2023/11/22 05:27:41;;;;;;;;;;;;;;;7.34;96.30;98838.00;4982175;28;20021;-70
2023/11/22 05:30:07;;;;;;;;;;;;;;;7.50;95.58;98841.91;4990278;28;19918;-70
2023/11/22 05:32:33;;;;;;;;;;;;;;;7.21;97.13;98848.16;4992435;28;20423;-70
2023/11/22 05:34:58;;;;;;;;;;;;;;;7.18;98.38;98852.44;4993408;28;19921;-70
2023/11/22 05:37:24;;;;;;;;;;;;;;;7.25;97.92;98851.94;4988747;28;20335;-70
2023/11/22 05:39:49;;;;;;;;;;;;;;;7.41;97.60;98849.44;4991254;28;19925;-68
2023/11/22 05:42:15;;;;;;;;;;;;;;;7.56;96.96;98837.00;4984513;28;20365;-69
2023/11/22 05:44:40;;;;;;;;;;;;;;;7.63;96.34;98847.63;4991118;28;20281;-72
2023/11/22 05:47:05;;;;;;;;;;;;;;;7.60;96.14;98851.88;4991768;28;20040;-70
2023/11/22 05:49:32;;;;;;;;;;;;;;;7.73;95.75;98852.84;4987871;28;19933;-68
2023/11/22 05:51:58;;;;;;;;;;;;;;;7.78;95.29;98855.44;4985701;28;19922;-69
2023/11/22 05:54:24;;;;;;;;;;;;;;;7.84;95.07;98848.56;4982623;28;19964;-70
2023/11/22 05:56:49;;;;;;;;;;;;;;;7.97;93.92;98865.38;4986377;28;19918;-70
2023/11/22 05:59:14;;;;;;;;;;;;;;;8.05;93.39;98866.50;4988532;28;20600;-70
2023/11/22 06:01:40;;;;;;;;;;;;;;;8.10;92.86;98864.38;4990844;28;19967;-70
2023/11/22 06:04:05;;;;;;;;;;;;;;;8.17;91.89;98874.97;4991699;28;20420;-68
2023/11/22 06:06:30;;;;;;;;;;;;;;;8.13;92.51;98874.81;4989982;28;19917;-71
2023/11/22 06:08:55;;;;;;;;;;;;;;;8.10;92.50;98871.91;4990527;28;19918;-71
2023/11/22 06:11:21;;;;;;;;;;;;;;;8.13;92.06;98874.03;4986759;28;19918;-73
2023/11/22 06:13:47;;;;;;;;;;;;;;;8.18;92.01;98867.47;4980195;28;19988;-72
2023/11/22 06:16:12;;;;;;;;;;;;;;;8.18;91.32;98868.25;4989310;28;19921;-72
2023/11/22 06:18:40;;;;;;;;;;;;;;;8.20;91.46;98879.88;4988489;28;20016;-72
2023/11/22 06:21:09;;;;;;;;;;;;;;;8.12;92.57;98889.09;4990308;28;19914;-73
2023/11/22 06:23:34;;;;;;;;;;;;;;;8.04;93.57;98885.22;4988397;28;19929;-73
2023/11/22 06:25:59;;;;;;;;;;;;;;;8.05;93.41;98886.00;4990019;28;19914;-74
2023/11/22 06:28:24;;;;;;;;;;;;;;;8.13;92.91;98891.53;4987894;28;19918;-74
2023/11/22 06:30:50;;;;;;;;;;;;;;;8.06;93.36;98887.63;4988573;28;20455;-74
2023/11/22 06:33:15;;;;;;;;;;;;;;;8.15;92.77;98888.44;4988621;28;20063;-72
2023/11/22 06:35:42;;;;;;;;;;;;;;;8.18;92.99;98896.13;4986241;28;20328;-72
2023/11/22 06:38:08;;;;;;;;;;;;;;;8.12;93.27;98906.63;4987755;28;20460;-70
2023/11/22 06:40:33;;;;;;;;;;;;;;;8.29;92.99;98911.31;4989024;28;20000;-69
2023/11/22 06:42:58;;;;;;;;;;;;;;;8.21;92.52;98914.16;4991841;28;20015;-70
2023/11/22 06:45:24;;;;;;;;;;;;;;;8.22;94.01;98921.34;4991235;28;20012;-71
2023/11/22 06:47:50;;;;;;;;;;;;;;;8.27;93.66;98923.97;4992306;28;19914;-71
2023/11/22 06:50:15;;;;;;;;;;;;;;;8.40;93.08;98928.50;4991045;28;19924;-71
2023/11/22 06:52:41;;;;;;;;;;;;;;;8.51;92.59;98928.19;4992217;28;20332;-71
2023/11/22 06:55:10;;;;;;;;;;;;;;;8.56;91.88;98923.22;4991317;28;19965;-71
2023/11/22 06:57:36;;;;;;;;;;;;;;;8.67;91.53;98925.63;4992067;28;19914;-71
2023/11/22 07:00:04;;;;;;;;;;;;;;;8.73;91.20;98934.63;4990096;28;19968;-71
2023/11/22 07:02:30;;;;;;;;;;;;;;;8.78;90.17;98920.50;4991501;28;19914;-71
2023/11/22 07:04:55;;;;;;;;;;;;;;;8.75;90.57;98935.09;4991181;28;20000;-70
2023/11/22 07:07:21;;;;;;;;;;;;;;;8.18;94.84;98935.13;4992098;28;20318;-71
2023/11/22 07:09:46;;;;;;;;;;;;;;;8.18;96.22;98934.31;4992166;28;19997;-72
2023/11/22 07:12:11;;;;;;;;;;;;;;;8.26;96.48;98928.72;4991234;28;19922;-72
2023/11/22 07:14:37;;;;;;;;;;;;;;;8.34;96.55;98942.97;4990691;28;19914;-72
2023/11/22 07:17:03;;;;;;;;;;;;;;;8.48;95.49;98935.19;4990794;28;19921;-72
2023/11/22 07:19:28;;;;;;;;;;;;;;;8.62;94.62;98950.91;4991980;28;19964;-71
2023/11/22 07:21:54;;;;;;;;;;;;;;;8.76;93.75;98937.56;4988528;28;19926;-70
2023/11/22 07:24:19;;;;;;;;;;;;;;;8.69;92.64;98952.03;4990354;28;19953;-70
2023/11/22 07:26:44;;;;;;;;;;;;;;;8.88;92.31;98939.63;4990697;28;20478;-70
2023/11/22 07:29:11;;;;;;;;;;;;;;;8.94;91.60;98937.47;4990556;28;19917;-71
2023/11/22 07:31:37;;;;;;;;;;;;;;;8.88;92.87;98927.66;4991864;28;19913;-69
2023/11/22 07:34:02;;;;;;;;;;;;;;;8.71;93.76;98926.59;4985970;28;19925;-69
2023/11/22 07:36:28;;;;;;;;;;;;;;;8.86;93.66;98927.97;4972584;28;19914;-69
2023/11/22 07:38:53;;;;;;;;;;;;;;;8.98;92.91;98930.06;4987342;28;20009;-69
2023/11/22 07:41:19;;;;;;;;;;;;;;;9.12;92.39;98927.81;4972463;28;19914;-69
2023/11/22 07:43:44;;;;;;;;;;;;;;;9.19;92.07;98927.28;4980698;28;19921;-69
2023/11/22 07:46:12;;;;;;;;;;;;;;;9.15;91.51;98939.47;4990988;28;19932;-69
2023/11/22 07:48:38;;;;;;;;;;;;;;;9.21;91.30;98940.91;4993394;28;19917;-69
2023/11/22 07:51:05;;;;;;;;;;;;;;;9.24;91.12;98948.59;4995376;28;19966;-69
2023/11/22 07:53:33;;;;;;;;;;;;;;;9.29;91.07;98948.41;4992905;28;19976;-71
2023/11/22 07:55:59;;;;;;;;;;;;;;;9.37;90.46;98953.09;4995159;28;19913;-71
2023/11/22 07:58:25;;;;;;;;;;;;;;;9.39;90.04;98961.16;4993243;28;20462;-71
2023/11/22 08:00:51;;;;;;;;;;;;;;;9.22;91.40;98964.88;4993114;28;19918;-70
2023/11/22 08:03:18;;;;;;;;;;;;;;;8.96;93.12;98965.84;4993596;28;20292;-71
2023/11/22 08:05:48;;;;;;;;;;;;;;;9.18;93.35;98969.50;4992366;28;19925;-71
2023/11/22 08:08:13;;;;;;;;;;;;;;;9.29;92.42;98970.75;4994921;28;19921;-71
2023/11/22 08:10:38;;;;;;;;;;;;;;;9.30;92.37;98977.13;4995016;28;20308;-71
2023/11/22 08:13:03;;;;;;;;;;;;;;;9.15;93.42;98973.78;4993583;28;19929;-71
2023/11/22 08:15:29;;;;;;;;;;;;;;;8.61;96.91;98964.03;4993917;28;19920;-71
2023/11/22 08:17:54;;;;;;;;;;;;;;;8.75;97.81;98966.59;4993426;28;20008;-71
2023/11/22 08:20:19;;;;;;;;;;;;;;;8.71;97.04;98960.88;4993986;28;19941;-71
2023/11/22 08:22:45;;;;;;;;;;;;;;;8.76;97.96;98970.22;4993411;28;19996;-71
2023/11/22 08:25:15;;;;;;;;;;;;;;;8.82;98.19;98961.31;4994736;28;19917;-71
2023/11/22 08:27:41;;;;;;;;;;;;;;;8.86;97.45;98972.59;4991844;28;20458;-71
2023/11/22 08:30:09;;;;;;;;;;;;;;;8.83;98.10;98968.53;4994563;28;20001;-71
2023/11/22 08:32:35;;;;;;;;;;;;;;;8.80;98.53;98968.38;4994513;28;19929;-71
2023/11/22 08:35:01;;;;;;;;;;;;;;;8.52;100.00;98978.00;4994441;28;19913;-71
2023/11/22 08:37:26;;;;;;;;;;;;;;;8.40;100.00;98977.84;4993502;28;19918;-70
2023/11/22 08:39:53;;;;;;;;;;;;;;;8.49;100.00;98981.44;4993888;28;20488;-70
2023/11/22 08:42:19;;;;;;;;;;;;;;;8.22;100.00;98979.84;4994490;28;19916;-69
2023/11/22 08:44:45;;;;;;;;;;;;;;;8.15;100.00;98978.41;4993711;28;19928;-69
2023/11/22 08:47:10;;;;;;;;;;;;;;;8.26;100.00;98978.88;4993381;28;19929;-69
2023/11/22 08:49:36;;;;;;;;;;;;;;;8.17;100.00;98971.69;4994189;28;20463;-69
2023/11/22 08:52:02;;;;;;;;;;;;;;;8.26;100.00;98970.50;4991987;28;20377;-69
2023/11/22 08:54:28;;;;;;;;;;;;;;;8.45;100.00;98980.47;4989928;28;19922;-68
2023/11/22 08:56:56;;;;;;;;;;;;;;;8.42;100.00;98976.38;4983784;28;20316;-69
2023/11/22 08:59:21;;;;;;;;;;;;;;;8.41;100.00;98973.91;4987714;28;19924;-69
2023/11/22 09:01:46;;;;;;;;;;;;;;;8.68;100.00;98969.06;4990069;28;19921;-69
2023/11/22 09:04:12;;;;;;;;;;;;;;;8.74;100.00;98970.53;4988744;28;19971;-70
2023/11/22 09:06:37;;;;;;;;;;;;;;;8.90;100.00;98973.59;4988579;28;19952;-71
2023/11/22 09:09:03;;;;;;;;;;;;;;;8.65;100.00;98970.59;4986968;28;20392;-70
2023/11/22 09:11:28;;;;;;;;;;;;;;;8.69;100.00;98979.09;4991406;28;19922;-70
2023/11/22 09:13:56;;;;;;;;;;;;;;;8.75;100.00;98980.53;4985816;28;20045;-71
2023/11/22 09:16:24;;;;;;;;;;;;;;;8.85;100.00;98977.38;4990070;28;20036;-71
2023/11/22 09:18:50;;;;;;;;;;;;;;;8.77;100.00;98977.44;4991364;28;19918;-70
2023/11/22 09:21:15;;;;;;;;;;;;;;;8.68;100.00;98986.63;4991145;28;20413;-70
2023/11/22 09:23:42;;;;;;;;;;;;;;;8.77;100.00;98985.78;4988638;28;19929;-70
2023/11/22 09:26:07;;;;;;;;;;;;;;;8.77;100.00;98988.56;4990397;28;19914;-70
2023/11/22 09:28:33;;;;;;;;;;;;;;;8.68;100.00;98983.00;4989666;28;19988;-70
2023/11/22 09:31:05;;;;;;;;;;;;;;;8.64;100.00;98987.63;4987825;28;19925;-70
2023/11/22 09:33:31;;;;;;;;;;;;;;;8.59;100.00;98993.41;4987712;28;19972;-70
2023/11/22 09:35:56;;;;;;;;;;;;;;;8.63;100.00;98983.22;4990910;28;19922;-70
2023/11/22 09:38:21;;;;;;;;;;;;;;;8.61;100.00;98993.88;4990176;28;19933;-70
2023/11/22 09:40:47;;;;;;;;;;;;;;;8.54;100.00;98995.19;4986784;28;20436;-70
2023/11/22 09:43:16;;;;;;;;;;;;;;;8.71;100.00;98993.53;4989086;28;19922;-70
2023/11/22 09:45:43;;;;;;;;;;;;;;;8.84;100.00;98989.69;4988004;28;19922;-70
2023/11/22 09:48:23;;;;;;;;;;;;;;;8.77;100.00;98992.16;4987832;28;20397;-70
2023/11/22 09:50:57;;;;;;;;;;;;;;;8.87;100.00;98991.00;4990303;28;19917;-70
2023/11/22 09:53:30;;;;;;;;;;;;;;;8.91;100.00;98991.13;4989343;28;19917;-70
2023/11/22 09:55:56;;;;;;;;;;;;;;;8.70;100.00;99003.03;4987903;28;19917;-70
2023/11/22 09:58:21;;;;;;;;;;;;;;;8.64;100.00;99004.38;4990416;28;20009;-70
2023/11/22 10:00:47;;;;;;;;;;;;;;;8.62;100.00;99001.91;4990292;28;20403;-70
2023/11/22 10:03:14;;;;;;;;;;;;;;;8.76;100.00;98996.13;4987200;28;19917;-70
2023/11/22 10:05:42;;;;;;;;;;;;;;;8.72;100.00;98995.16;4988890;28;19918;-69
2023/11/22 10:08:09;;;;;;;;;;;;;;;8.91;100.00;98985.53;4989108;28;20395;-69
2023/11/22 10:10:36;;;;;;;;;;;;;;;8.87;100.00;98984.59;4987345;28;19980;-69
2023/11/22 10:13:01;;;;;;;;;;;;;;;8.84;100.00;98978.53;4989654;28;19922;-69
2023/11/22 10:15:28;;;;;;;;;;;;;;;8.83;100.00;98978.84;4989231;28;19925;-69
2023/11/22 10:17:57;;;;;;;;;;;;;;;8.90;100.00;98986.69;4991157;28;19920;-69
2023/11/22 10:20:35;;;;;;;;;;;;;;;8.91;100.00;98985.53;4990869;28;19964;-70
2023/11/22 10:23:00;;;;;;;;;;;;;;;8.99;100.00;98981.91;4984472;28;19921;-70
2023/11/22 10:25:26;;;;;;;;;;;;;;;9.07;100.00;98981.03;5004877;28;19929;-71
2023/11/22 10:27:51;;;;;;;;;;;;;;;9.23;100.00;98975.69;4990624;28;19945;-71
2023/11/22 10:30:17;;;;;;;;;;;;;;;9.16;100.00;98969.81;4986347;28;20016;-70
2023/11/22 10:32:42;;;;;;;;;;;;;;;9.33;100.00;98968.91;4988689;28;20048;-71
2023/11/22 10:35:08;;;;;;;;;;;;;;;9.46;100.00;98972.56;4990262;28;19918;-72
2023/11/22 10:37:34;;;;;;;;;;;;;;;9.47;100.00;98978.97;4987778;28;19924;-72
2023/11/22 10:40:00;;;;;;;;;;;;;;;9.45;100.00;98970.94;4990734;28;19952;-70
2023/11/22 10:42:26;;;;;;;;;;;;;;;9.43;100.00;98986.41;4988963;28;19949;-70
2023/11/22 10:44:54;;;;;;;;;;;;;;;9.55;100.00;98989.28;4989189;28;19973;-70
2023/11/22 10:47:19;;;;;;;;;;;;;;;9.46;100.00;98991.31;4983887;28;20008;-70
2023/11/22 10:49:45;;;;;;;;;;;;;;;9.62;100.00;98989.53;4986809;28;20376;-70
2023/11/22 10:52:12;;;;;;;;;;;;;;;9.81;100.00;98977.88;4980878;28;20464;-70
2023/11/22 10:54:42;;;;;;;;;;;;;;;9.98;100.00;98979.69;4983923;28;19928;-70
2023/11/22 10:57:07;;;;;;;;;;;;;;;9.93;100.00;98984.69;4987926;28;20000;-70
2023/11/22 10:59:33;;;;;;;;;;;;;;;10.01;100.00;98981.00;4988157;28;20004;-71
2023/11/22 11:02:03;;;;;;;;;;;;;;;9.98;100.00;98988.06;4980028;28;19929;-72
2023/11/22 11:04:34;;;;;;;;;;;;;;;9.84;100.00;98981.97;4985073;28;19992;-71
2023/11/22 11:07:01;;;;;;;;;;;;;;;9.99;100.00;98988.91;4984730;28;20427;-70
2023/11/22 11:09:32;;;;;;;;;;;;;;;10.04;100.00;98985.88;4984944;28;19933;-73
2023/11/22 11:11:57;;;;;;;;;;;;;;;9.95;100.00;98972.00;4987146;28;20388;-71
2023/11/22 11:14:23;;;;;;;;;;;;;;;10.14;100.00;98987.47;4987529;28;19955;-73
2023/11/22 11:16:54;;;;;;;;;;;;;;;10.22;100.00;98983.75;4987046;28;20011;-70
2023/11/22 11:19:22;;;;;;;;;;;;;;;10.30;100.00;98981.22;4986838;28;19972;-70
2023/11/22 11:21:47;;;;;;;;;;;;;;;10.47;100.00;98983.03;4988939;28;20008;-73
2023/11/22 11:24:14;;;;;;;;;;;;;;;10.73;100.00;98979.91;4992635;28;20000;-72
2023/11/22 11:26:39;;;;;;;;;;;;;;;10.94;100.00;98982.63;4991357;28;20001;-71
2023/11/22 11:29:06;;;;;;;;;;;;;;;10.87;100.00;98987.16;4992973;28;19968;-70
2023/11/22 11:31:35;;;;;;;;;;;;;;;11.13;100.00;98995.19;4993774;28;20377;-72
2023/11/22 11:34:00;;;;;;;;;;;;;;;11.14;100.00;98993.22;4995423;28;19956;-70
2023/11/22 11:36:27;;;;;;;;;;;;;;;11.21;100.00;98997.06;5003723;28;20372;-71
2023/11/22 11:38:54;;;;;;;;;;;;;;;11.34;100.00;99005.47;4987971;28;20393;-70
2023/11/22 11:41:23;;;;;;;;;;;;;;;11.34;100.00;99006.28;4983165;28;20408;-70
2023/11/22 11:43:51;;;;;;;;;;;;;;;11.48;100.00;99005.09;4987325;28;20023;-71
2023/11/22 11:46:17;;;;;;;;;;;;;;;11.60;100.00;99007.88;4990292;28;20050;-71
2023/11/22 11:48:44;;;;;;;;;;;;;;;11.61;100.00;99001.09;4993862;28;20002;-71
2023/11/22 11:51:11;;;;;;;;;;;;;;;11.83;99.99;99010.16;4992578;28;20011;-71
2023/11/22 11:53:37;;;;;;;;;;;;;;;11.70;97.72;99011.34;4989666;28;19921;-71
2023/11/22 11:56:02;;;;;;;;;;;;;;;11.89;97.02;99008.72;4989272;28;19918;-71
2023/11/22 11:58:28;;;;;;;;;;;;;;;11.90;96.82;99004.75;4992602;28;19932;-71
2023/11/22 12:00:54;;;;;;;;;;;;;;;12.05;95.40;98997.59;4992059;28;20456;-71
2023/11/22 12:03:21;;;;;;;;;;;;;;;12.13;94.33;98989.41;4985119;28;19918;-71
2023/11/22 12:05:46;;;;;;;;;;;;;;;12.28;94.80;98997.03;4989646;28;19913;-71
2023/11/22 12:08:15;;;;;;;;;;;;;;;11.93;93.89;98994.81;4989233;28;19922;-71
2023/11/22 12:10:40;;;;;;;;;;;;;;;11.97;94.07;98992.13;4992205;28;19925;-71
2023/11/22 12:13:07;;;;;;;;;;;;;;;12.06;92.72;98996.44;4992587;28;19922;-71
2023/11/22 12:15:33;;;;;;;;;;;;;;;12.15;92.35;99001.06;4992911;28;19913;-71
2023/11/22 12:17:59;;;;;;;;;;;;;;;12.31;91.79;98990.69;4991846;28;20016;-71
2023/11/22 12:20:31;;;;;;;;;;;;;;;12.01;92.64;98981.81;4990870;28;20001;-71
2023/11/22 12:22:56;;;;;;;;;;;;;;;12.07;93.15;98978.44;4990354;28;19918;-71
2023/11/22 12:25:21;;;;;;;;;;;;;;;11.90;95.14;98968.31;4992447;28;20448;-71
2023/11/22 12:27:47;;;;;;;;;;;;;;;12.12;94.85;98990.56;4990106;28;19995;-71
2023/11/22 12:30:33;;;;;;;;;;;;;;;11.76;95.36;98990.31;4992762;28;20004;-71
2023/11/22 12:33:05;;;;;;;;;;;;;;;11.82;96.98;98994.47;4986316;28;19936;-71
2023/11/22 12:35:32;;;;;;;;;;;;;;;11.90;96.88;98996.34;4989580;28;19925;-71
2023/11/22 12:37:58;;;;;;;;;;;;;;;12.04;96.25;98998.78;4986852;28;19932;-71
2023/11/22 12:40:23;;;;;;;;;;;;;;;11.58;97.33;98998.19;4986995;28;20297;-71
2023/11/22 12:42:50;;;;;;;;;;;;;;;11.77;98.09;99011.56;4989563;28;20073;-71
2023/11/22 12:45:38;;;;;;;;;;;;;;;11.66;96.87;99014.06;4989948;28;19929;-71
2023/11/22 12:48:19;;;;;;;;;;;;;;;11.92;97.37;99010.00;4988164;28;20447;-71